createdAt,value
2018-07-21T00:04:17.344Z,4.40
2018-07-21T00:09:13.183Z,4.90
2018-07-21T00:14:07.825Z,6.92
2018-07-21T00:19:02.325Z,5.35
2018-07-21T00:23:56.804Z,6.00
2018-07-21T00:28:51.559Z,5.33
2018-07-21T00:33:46.083Z,5.00
2018-07-21T00:38:40.606Z,4.97
2018-07-21T00:43:34.791Z,6.25
2018-07-21T00:48:29.361Z,5.80
2018-07-21T00:53:23.957Z,5.80
2018-07-21T00:58:18.520Z,4.77
2018-07-21T01:03:13.101Z,6.20
2018-07-21T01:08:07.699Z,4.60
2018-07-21T01:13:02.209Z,4.67
2018-07-21T01:17:56.769Z,5.00
2018-07-21T01:22:51.305Z,4.93
2018-07-21T01:27:45.838Z,5.57
2018-07-21T01:32:40.419Z,5.00
2018-07-21T01:37:34.941Z,5.40
2018-07-21T01:42:29.449Z,4.43
2018-07-21T01:47:23.992Z,6.33
2018-07-21T01:52:18.501Z,5.20
2018-07-21T01:57:13.044Z,5.30
2018-07-21T02:02:07.631Z,5.57
2018-07-21T02:07:02.113Z,5.20
2018-07-21T02:11:56.642Z,5.13
2018-07-21T02:16:51.191Z,4.40
2018-07-21T02:21:45.660Z,7.13
2018-07-21T02:26:40.166Z,7.70
2018-07-21T02:31:34.718Z,4.43
2018-07-21T02:36:29.261Z,5.30
2018-07-21T02:41:23.793Z,4.63
2018-07-21T02:46:18.400Z,4.27
2018-07-21T02:51:12.878Z,3.87
2018-07-21T02:56:07.413Z,4.73
2018-07-21T03:01:01.963Z,3.60
2018-07-21T03:05:56.514Z,3.87
2018-07-21T03:10:51.019Z,3.30
2018-07-21T03:15:45.551Z,4.33
2018-07-21T03:20:40.057Z,4.43
2018-07-21T03:25:36.510Z,3.93
2018-07-21T03:30:31.034Z,3.13
2018-07-21T03:35:25.552Z,3.43
2018-07-21T03:40:20.065Z,3.43
2018-07-21T03:45:14.585Z,3.80
2018-07-21T03:50:09.120Z,4.23
2018-07-21T03:55:03.741Z,3.37
2018-07-21T03:59:58.194Z,4.23
2018-07-21T04:04:52.733Z,2.97
2018-07-21T04:09:47.187Z,2.83
2018-07-21T04:14:41.680Z,3.40
2018-07-21T04:19:36.195Z,3.33
2018-07-21T04:24:30.710Z,2.83
2018-07-21T04:29:25.231Z,2.93
2018-07-21T04:34:19.739Z,3.63
2018-07-21T04:39:14.249Z,3.33
2018-07-21T04:44:08.840Z,3.03
2018-07-21T04:49:03.381Z,4.27
2018-07-21T04:53:57.952Z,3.20
2018-07-21T04:58:52.559Z,3.00
2018-07-21T05:03:47.089Z,3.93
2018-07-21T05:08:41.655Z,3.77
2018-07-21T05:13:36.194Z,3.80
2018-07-21T05:18:30.776Z,4.00
2018-07-21T05:23:25.317Z,3.20
2018-07-21T05:28:19.852Z,3.40
2018-07-21T05:33:14.047Z,2.93
2018-07-21T05:38:08.640Z,3.00
2018-07-21T05:43:02.892Z,2.97
2018-07-21T05:47:57.476Z,3.80
2018-07-21T05:52:52.012Z,6.57
2018-07-21T05:57:46.561Z,3.73
2018-07-21T06:02:41.160Z,4.33
2018-07-21T06:07:35.682Z,3.80
2018-07-21T06:12:30.296Z,3.40
2018-07-21T06:17:24.909Z,3.33
2018-07-21T06:22:19.192Z,3.97
2018-07-21T06:27:13.725Z,3.30
2018-07-21T06:32:08.665Z,3.50
2018-07-21T06:37:03.205Z,3.93
2018-07-21T06:41:57.797Z,4.40
2018-07-21T06:46:52.345Z,3.37
2018-07-21T06:51:46.903Z,5.23
2018-07-21T06:56:41.533Z,4.63
2018-07-21T07:01:36.044Z,5.37
2018-07-21T07:06:30.671Z,4.33
2018-07-21T07:11:25.501Z,4.83
2018-07-21T07:16:20.525Z,4.40
2018-07-21T07:21:15.077Z,4.85
2018-07-21T07:26:09.638Z,3.62
2018-07-21T07:31:04.243Z,4.60
2018-07-21T07:35:58.782Z,4.67
2018-07-21T07:40:53.060Z,7.05
2018-07-21T07:45:47.637Z,3.65
2018-07-21T07:50:42.242Z,4.15
2018-07-21T07:55:37.042Z,5.20
2018-07-21T08:00:31.711Z,3.90
2018-07-21T08:05:26.237Z,5.25
2018-07-21T08:10:20.817Z,4.95
2018-07-21T08:15:15.388Z,6.62
2018-07-21T08:20:09.982Z,4.70
2018-07-21T08:25:04.787Z,3.70
2018-07-21T08:29:59.354Z,6.05
2018-07-21T08:34:53.673Z,4.80
2018-07-21T08:39:48.264Z,5.05
2018-07-21T08:44:42.823Z,3.90
2018-07-21T08:49:37.472Z,4.97
2018-07-21T08:54:32.022Z,6.33
2018-07-21T08:59:26.579Z,3.97
2018-07-21T09:04:21.152Z,3.90
2018-07-21T09:09:15.722Z,5.15
2018-07-21T09:14:10.288Z,3.85
2018-07-21T09:19:04.943Z,4.17
2018-07-21T09:23:59.975Z,5.35
2018-07-21T09:28:55.445Z,3.60
2018-07-21T09:33:50.103Z,4.45
2018-07-21T09:38:44.859Z,6.17
2018-07-21T09:43:39.440Z,4.40
2018-07-21T09:48:34.134Z,4.92
2018-07-21T09:53:28.544Z,3.70
2018-07-21T09:58:23.141Z,3.95
2018-07-21T10:03:17.777Z,4.80
2018-07-21T10:08:12.404Z,3.65
2018-07-21T10:13:07.933Z,3.37
2018-07-21T10:18:02.498Z,3.50
2018-07-21T10:22:57.024Z,3.47
2018-07-21T10:27:56.900Z,3.77
2018-07-21T10:32:51.589Z,4.20
2018-07-21T10:37:46.230Z,3.17
2018-07-21T10:42:40.794Z,3.95
2018-07-21T10:47:35.966Z,4.80
2018-07-21T10:52:30.560Z,3.40
2018-07-21T10:57:25.268Z,3.65
2018-07-21T11:02:19.916Z,2.95
2018-07-21T11:07:14.453Z,3.50
2018-07-21T11:12:09.004Z,2.83
2018-07-21T11:17:03.645Z,2.33
2018-07-21T11:21:58.263Z,3.72
2018-07-21T11:26:52.762Z,2.25
2018-07-21T11:31:47.328Z,2.55
2018-07-21T11:36:41.906Z,2.30
2018-07-21T11:41:36.467Z,2.60
2018-07-21T11:46:31.115Z,2.67
2018-07-21T11:51:25.674Z,3.75
2018-07-21T11:56:20.270Z,2.12
2018-07-21T12:01:14.805Z,2.10
2018-07-21T12:06:09.513Z,2.75
2018-07-21T12:11:04.245Z,4.53
2018-07-21T12:15:58.787Z,3.92
2018-07-21T12:20:53.538Z,3.33
2018-07-21T12:25:48.126Z,2.98
2018-07-21T12:30:42.755Z,3.12
2018-07-21T12:35:37.266Z,3.98
2018-07-21T12:40:31.576Z,4.17
2018-07-21T12:45:25.831Z,3.55
2018-07-21T12:50:20.405Z,2.52
2018-07-21T12:55:14.969Z,2.58
2018-07-21T13:00:09.582Z,3.60
2018-07-21T13:05:03.900Z,2.27
2018-07-21T13:09:58.428Z,1.95
2018-07-21T13:14:53.069Z,3.42
2018-07-21T13:19:48.010Z,2.55
2018-07-21T13:24:42.647Z,2.85
2018-07-21T13:29:37.223Z,3.35
2018-07-21T13:34:31.496Z,2.25
2018-07-21T13:39:26.178Z,2.10
2018-07-21T13:44:21.253Z,2.08
2018-07-21T13:49:15.777Z,3.60
2018-07-21T13:54:10.395Z,2.40
2018-07-21T13:59:05.233Z,3.10
2018-07-21T14:03:59.821Z,1.82
2018-07-21T14:08:54.333Z,2.37
2018-07-21T14:13:48.962Z,2.33
2018-07-21T14:18:43.541Z,2.60
2018-07-21T14:23:38.112Z,2.85
2018-07-21T14:28:32.738Z,2.80
2018-07-21T14:33:27.350Z,2.50
2018-07-21T14:38:22.181Z,2.50
2018-07-21T14:43:16.748Z,3.17
2018-07-21T14:48:11.326Z,3.17
2018-07-21T14:53:05.881Z,2.75
2018-07-21T14:58:00.464Z,3.72
2018-07-21T15:02:55.082Z,3.95
2018-07-21T15:07:49.694Z,6.10
2018-07-21T15:12:44.254Z,3.17
2018-07-21T15:17:38.838Z,3.15
2018-07-21T15:22:33.424Z,2.52
2018-07-21T15:27:27.976Z,2.55
2018-07-21T15:32:22.546Z,2.42
2018-07-21T15:37:17.161Z,2.50
2018-07-21T15:42:11.727Z,2.15
2018-07-21T15:47:06.747Z,2.50
2018-07-21T15:52:01.375Z,2.30
2018-07-21T15:56:56.045Z,2.52
2018-07-21T16:01:50.652Z,2.05
2018-07-21T16:06:45.419Z,2.05
2018-07-21T16:11:40.461Z,3.27
2018-07-21T16:16:35.224Z,2.40
2018-07-21T16:21:29.890Z,3.08
2018-07-21T16:26:24.754Z,4.62
2018-07-21T16:31:19.695Z,2.67
2018-07-21T16:36:14.370Z,3.35
2018-07-21T16:41:08.994Z,2.90
2018-07-21T16:46:03.625Z,2.83
2018-07-21T16:50:58.150Z,2.60
2018-07-21T16:55:52.753Z,3.57
2018-07-21T17:00:46.951Z,2.53
2018-07-21T17:05:41.607Z,1.70
2018-07-21T17:10:36.148Z,1.80
2018-07-21T17:15:30.649Z,2.00
2018-07-21T17:20:25.214Z,2.50
2018-07-21T17:25:19.848Z,3.60
2018-07-21T17:30:14.755Z,2.53
2018-07-21T17:35:09.333Z,2.07
2018-07-21T17:40:04.048Z,1.40
2018-07-21T17:44:58.619Z,1.27
2018-07-21T17:49:53.177Z,2.07
2018-07-21T17:54:47.912Z,1.90
2018-07-21T17:59:42.573Z,1.63
2018-07-21T18:04:37.244Z,1.47
2018-07-21T18:09:31.777Z,1.27
2018-07-21T18:14:26.033Z,2.77
2018-07-21T18:19:20.809Z,1.70
2018-07-21T18:24:15.352Z,2.07
2018-07-21T18:29:09.942Z,2.50
2018-07-21T18:34:04.534Z,2.23
2018-07-21T18:38:59.254Z,1.57
2018-07-21T18:43:54.001Z,4.30
2018-07-21T18:48:48.537Z,2.37
2018-07-21T18:53:43.297Z,2.77
2018-07-21T18:58:37.860Z,2.40
2018-07-21T19:03:32.391Z,2.30
2018-07-21T19:08:31.001Z,4.87
2018-07-21T19:13:25.505Z,3.80
2018-07-21T19:18:20.077Z,5.70
2018-07-21T19:23:14.688Z,4.10
2018-07-21T19:28:09.276Z,5.70
2018-07-21T19:33:03.897Z,3.87
2018-07-21T19:37:58.484Z,3.97
2018-07-21T19:42:53.067Z,3.57
2018-07-21T19:47:47.406Z,3.03
2018-07-21T19:52:42.556Z,2.70
2018-07-21T19:57:37.152Z,3.00
2018-07-21T20:02:31.781Z,3.60
2018-07-21T20:07:26.606Z,3.73
2018-07-21T20:12:21.269Z,4.83
2018-07-21T20:17:15.862Z,5.03
2018-07-21T20:22:10.135Z,5.70
2018-07-21T20:27:04.489Z,5.63
2018-07-21T20:31:59.189Z,5.93
2018-07-21T20:36:53.774Z,5.47
2018-07-21T20:41:48.417Z,4.90
2018-07-21T20:46:42.932Z,4.43
2018-07-21T20:51:37.551Z,4.57
2018-07-21T20:56:31.826Z,5.63
2018-07-21T21:01:26.437Z,4.70
2018-07-21T21:06:21.095Z,4.57
2018-07-21T21:11:15.787Z,4.60
2018-07-21T21:16:10.016Z,5.30
2018-07-21T21:21:04.686Z,4.97
2018-07-21T21:25:59.249Z,5.00
2018-07-21T21:30:53.870Z,4.93
2018-07-21T21:35:48.432Z,5.60
2018-07-21T21:40:42.953Z,5.93
2018-07-21T21:45:37.533Z,5.23
2018-07-21T21:50:32.114Z,6.73
2018-07-21T21:55:27.521Z,5.90
2018-07-21T22:00:22.098Z,6.60
2018-07-21T22:05:16.703Z,7.40
2018-07-21T22:10:11.474Z,7.53
2018-07-21T22:15:17.905Z,8.63
2018-07-21T22:20:12.539Z,7.33
2018-07-21T22:25:07.098Z,6.73
2018-07-21T22:30:01.685Z,7.30
2018-07-21T22:34:56.358Z,7.20
2018-07-21T22:39:50.932Z,7.23
2018-07-21T22:44:45.537Z,6.53
2018-07-21T22:49:40.149Z,7.17
2018-07-21T22:54:34.929Z,7.20
2018-07-21T22:59:29.542Z,7.57
2018-07-21T23:04:24.105Z,7.93
2018-07-21T23:09:18.702Z,7.73
2018-07-21T23:14:13.283Z,6.73
2018-07-21T23:19:07.885Z,6.57
2018-07-21T23:24:02.595Z,7.27
2018-07-21T23:28:57.230Z,6.77
2018-07-21T23:33:51.834Z,8.17
2018-07-21T23:38:46.499Z,7.00
2018-07-21T23:43:41.234Z,7.17
2018-07-21T23:48:35.847Z,6.73
2018-07-21T23:53:30.397Z,6.07
2018-07-21T23:58:24.688Z,8.00
